This is the latest recevied weather packets stored in our database for station/object SR4DIG-13. If no packets are shown the sender has not sent any weather packets the latest 10 day(s).
| Time | Temp. | Humidity | Pressure | Rain* | Wind** | Luminosity | Snow |
|---|---|---|---|---|---|---|---|
| 1777630518 | 15.56° C | 50% | 1024.5 hPa | 0 mm | - | - | - |
| 1777630217 | 15.56° C | 51% | 1024.5 hPa | 0 mm | - | - | - |
| 1777629917 | 16.11° C | 51% | 1024.8 hPa | 0 mm | - | - | - |
| 1777629615 | 15° C | 52% | 1024.5 hPa | 0 mm | - | - | - |
| 1777629058 | 15° C | 52% | 1024.8 hPa | 0 mm | - | - | - |
| 1777628758 | 15° C | 53% | 1024.8 hPa | 0 mm | - | - | - |
| 1777628457 | 15° C | 52% | 1024.8 hPa | 0 mm | - | - | - |
| 1777628156 | 14.44° C | 53% | 1024.8 hPa | 0 mm | - | - | - |
| 1777627855 | 14.44° C | 53% | 1024.8 hPa | 0 mm | - | - | - |
| 1777627554 | 14.44° C | 53% | 1024.8 hPa | 0 mm | - | - | - |
| 1777627254 | 14.44° C | 53% | 1024.8 hPa | 0 mm | - | - | - |
| 1777626838 | 14.44° C | 53% | 1024.8 hPa | 0 mm | - | - | - |
| 1777626538 | 14.44° C | 53% | 1024.9 hPa | 0 mm | - | - | - |
| 1777626237 | 14.44° C | 53% | 1024.9 hPa | 0 mm | - | - | - |
| 1777625938 | 14.44° C | 53% | 1024.9 hPa | 0 mm | - | - | - |
| 1777625433 | 14.44° C | 53% | 1025.1 hPa | 0 mm | - | - | - |
| 1777625132 | 14.44° C | 53% | 1025 hPa | 0 mm | - | - | - |
| 1777624831 | 14.44° C | 54% | 1025 hPa | 0 mm | - | - | - |
| 1777624530 | 13.33° C | 55% | 1025.1 hPa | 0 mm | - | - | - |
| 1777624229 | 13.33° C | 55% | 1025 hPa | 0 mm | - | - | - |
| 1777623928 | 13.33° C | 55% | 1025 hPa | 0 mm | - | - | - |
| 1777623628 | 12.78° C | 57% | 1024.9 hPa | 0 mm | - | - | - |
| 1777623027 | 12.78° C | 57% | 1025.1 hPa | 0 mm | - | - | - |
| 1777622726 | 12.78° C | 58% | 1025.1 hPa | 0 mm | - | - | - |
| 1777622425 | 12.22° C | 58% | 1025 hPa | 0 mm | - | - | - |
* Rain since midnight (hover to see other rain measurements)
** Current wind speed in m/s (hover to see current wind gust speed)